Time;durP1;ratioP1;P1;durP2;ratioP2;P2;SDS_P1;SDS_P2;PMS_P1;PMS_P2;Temp;Humidity;BMP_temperature;BMP_pressure;BME280_temperature;BME280_humidity;BME280_pressure;Samples;Min_cycle;Max_cycle;Signal;HPM_P1;HPM_P2
2022/01/23 00:02:09;;;;;;;9.67;5.10;;;;;;;;;;5023738;28;20080;-69
2022/01/23 00:04:36;;;;;;;6.80;3.53;;;;;;;;;;5057191;28;20062;-69
2022/01/23 00:07:07;;;;;;;5.00;2.47;;;;;;;;;;5054655;28;20029;-69
2022/01/23 00:09:41;;;;;;;6.00;2.17;;;;;;;;;;5051024;28;20423;-69
2022/01/23 00:12:14;;;;;;;4.82;2.15;;;;;;;;;;5052613;28;20399;-69
2022/01/23 00:17:38;;;;;;;5.77;2.30;;;;;;;;;;5069297;28;20082;-69
2022/01/23 00:20:09;;;;;;;9.37;3.27;;;;;;;;;;5073579;28;20024;-67
2022/01/23 00:22:44;;;;;;;8.50;2.50;;;;;;;;;;5074293;28;20040;-67
2022/01/23 00:30:49;;;;;;;5.53;2.80;;;;;;;;;;5053882;28;20051;-70
2022/01/23 00:33:20;;;;;;;8.53;2.87;;;;;;;;;;5049484;28;20167;-70
2022/01/23 00:35:49;;;;;;;7.03;2.43;;;;;;;;;;5058943;28;20032;-70
2022/01/23 00:38:18;;;;;;;7.37;2.90;;;;;;;;;;5054307;28;20033;-70
2022/01/23 00:40:47;;;;;;;13.00;3.83;;;;;;;;;;5050479;28;20041;-70
2022/01/23 00:43:28;;;;;;;8.10;3.80;;;;;;;;;;5060133;28;20024;-67
2022/01/23 00:46:49;;;;;;;7.43;3.07;;;;;;;;;;5062843;28;20082;-67
2022/01/23 00:49:13;;;;;;;6.00;2.30;;;;;;;;;;5041346;28;20218;-67
2022/01/23 00:51:39;;;;;;;2.80;2.00;;;;;;;;;;5053658;28;20037;-67
2022/01/23 00:54:11;;;;;;;4.33;2.63;;;;;;;;;;5051184;28;20083;-68
2022/01/23 00:56:40;;;;;;;7.87;2.30;;;;;;;;;;5065407;28;20033;-68
2022/01/23 00:59:09;;;;;;;6.80;2.53;;;;;;;;;;5063397;28;20031;-67
2022/01/23 01:01:36;;;;;;;3.17;2.10;;;;;;;;;;5048949;28;20464;-67
2022/01/23 01:04:05;;;;;;;7.00;2.70;;;;;;;;;;5051790;28;20111;-67
2022/01/23 01:06:34;;;;;;;4.17;3.00;;;;;;;;;;5068623;28;20467;-67
2022/01/23 01:09:05;;;;;;;4.30;2.63;;;;;;;;;;5065017;28;20051;-67
2022/01/23 01:33:12;;;;;;;5.00;1.70;;;;;;;;;;5072808;28;20059;-67
2022/01/23 01:38:15;;;;;;;6.07;3.10;;;;;;;;;;5068993;28;20138;-67
2022/01/23 01:40:41;;;;;;;4.93;2.70;;;;;;;;;;5055135;28;20021;-69
2022/01/23 01:43:09;;;;;;;7.13;3.20;;;;;;;;;;5049537;28;20052;-70
2022/01/23 01:45:38;;;;;;;11.70;3.23;;;;;;;;;;5047762;28;20106;-67
2022/01/23 01:48:06;;;;;;;7.90;3.40;;;;;;;;;;5058230;28;20117;-67
2022/01/23 01:50:33;;;;;;;5.77;2.83;;;;;;;;;;5072507;28;20054;-67
2022/01/23 01:53:01;;;;;;;9.93;3.57;;;;;;;;;;5053077;28;20024;-67
2022/01/23 01:55:37;;;;;;;5.10;2.70;;;;;;;;;;5053066;28;20021;-67
2022/01/23 01:58:05;;;;;;;5.83;2.27;;;;;;;;;;5052184;28;20111;-67
2022/01/23 02:01:13;;;;;;;9.00;3.20;;;;;;;;;;5049631;28;20021;-67
2022/01/23 02:08:47;;;;;;;4.88;1.83;;;;;;;;;;5047513;28;20048;-67
2022/01/23 02:11:23;;;;;;;6.17;2.47;;;;;;;;;;5052608;28;20028;-67
2022/01/23 02:14:12;;;;;;;6.00;2.90;;;;;;;;;;5071690;28;20025;-67
2022/01/23 02:17:12;;;;;;;6.40;2.87;;;;;;;;;;5064259;28;20452;-67
2022/01/23 02:55:26;;;;;;;5.63;2.40;;;;;;;;;;5064215;28;20029;-69
2022/01/23 02:58:03;;;;;;;6.50;3.03;;;;;;;;;;5058586;28;20032;-68
2022/01/23 03:00:46;;;;;;;5.30;2.87;;;;;;;;;;5052002;28;20456;-69
2022/01/23 03:03:21;;;;;;;14.27;3.17;;;;;;;;;;5062632;28;20036;-68
2022/01/23 03:06:21;;;;;;;9.10;4.03;;;;;;;;;;5051738;28;20066;-68
2022/01/23 03:14:13;;;;;;;7.07;3.10;;;;;;;;;;5052061;28;20033;-68
2022/01/23 03:29:57;;;;;;;5.07;2.67;;;;;;;;;;5048440;28;20044;-68
2022/01/23 03:32:33;;;;;;;6.40;3.10;;;;;;;;;;5051858;28;20041;-68
2022/01/23 03:35:01;;;;;;;7.53;2.93;;;;;;;;;;5066397;28;20032;-68
2022/01/23 03:37:28;;;;;;;10.00;2.87;;;;;;;;;;5064161;28;20033;-68
2022/01/23 03:39:55;;;;;;;13.90;2.93;;;;;;;;;;5067323;28;20031;-68
2022/01/23 03:42:25;;;;;;;9.77;2.93;;;;;;;;;;5060532;28;20037;-68
2022/01/23 03:45:54;;;;;;;7.43;3.87;;;;;;;;;;5069887;28;20032;-68
2022/01/23 03:47:39;;;;;;;5.93;3.63;;;;;;;;;;5055042;28;20779;-68
2022/01/23 03:50:08;;;;;;;9.43;3.93;;;;;;;;;;5068496;28;20029;-68
2022/01/23 03:52:35;;;;;;;10.73;3.17;;;;;;;;;;5046826;28;20111;-68
2022/01/23 03:55:05;;;;;;;7.33;2.93;;;;;;;;;;5056131;28;20495;-68
2022/01/23 03:57:32;;;;;;;7.87;2.83;;;;;;;;;;5065851;28;20033;-69
2022/01/23 04:00:00;;;;;;;8.30;2.97;;;;;;;;;;5065678;28;20031;-69
2022/01/23 04:02:27;;;;;;;8.00;2.83;;;;;;;;;;5053851;28;20029;-68
2022/01/23 04:04:55;;;;;;;4.93;2.67;;;;;;;;;;5055073;28;20499;-68
2022/01/23 04:07:26;;;;;;;6.70;3.37;;;;;;;;;;5055759;28;20127;-68
2022/01/23 04:09:54;;;;;;;6.70;3.80;;;;;;;;;;5072558;28;20081;-68
2022/01/23 04:12:43;;;;;;;5.73;2.80;;;;;;;;;;5054055;28;20471;-66
2022/01/23 04:20:41;;;;;;;8.97;2.57;;;;;;;;;;5063741;28;20047;-66
2022/01/23 04:34:34;;;;;;;8.07;3.60;;;;;;;;;;5054399;28;20044;-68
2022/01/23 04:45:30;;;;;;;5.60;3.40;;;;;;;;;;5063819;28;20045;-66
2022/01/23 05:02:15;;;;;;;8.73;4.50;;;;;;;;;;5062695;28;20040;-66
2022/01/23 05:04:42;;;;;;;18.50;8.47;;;;;;;;;;5067794;28;20074;-66
2022/01/23 05:07:10;;;;;;;10.57;5.20;;;;;;;;;;5068423;28;20463;-65
2022/01/23 05:09:37;;;;;;;6.93;4.27;;;;;;;;;;5062067;28;20139;-65
2022/01/23 05:12:06;;;;;;;8.63;3.50;;;;;;;;;;5068852;28;20040;-66
2022/01/23 05:14:40;;;;;;;9.93;4.53;;;;;;;;;;5071794;28;20048;-66
2022/01/23 05:17:09;;;;;;;10.17;5.57;;;;;;;;;;5073593;28;20056;-66
2022/01/23 05:19:36;;;;;;;8.53;3.93;;;;;;;;;;5055866;28;20013;-65
2022/01/23 05:24:44;;;;;;;13.10;3.47;;;;;;;;;;5057074;28;20064;-64
2022/01/23 05:27:11;;;;;;;9.70;3.90;;;;;;;;;;5048583;28;20029;-65
2022/01/23 05:29:39;;;;;;;7.20;4.03;;;;;;;;;;5058471;28;20036;-64
2022/01/23 05:32:08;;;;;;;13.60;3.50;;;;;;;;;;5052966;28;20068;-64
2022/01/23 05:34:40;;;;;;;9.17;3.83;;;;;;;;;;5060486;28;20028;-65
2022/01/23 05:37:11;;;;;;;12.43;4.00;;;;;;;;;;5073064;28;20021;-65
2022/01/23 05:39:38;;;;;;;6.00;3.03;;;;;;;;;;5072304;28;20043;-67
2022/01/23 05:42:07;;;;;;;6.50;3.40;;;;;;;;;;5071961;28;20025;-64
2022/01/23 05:44:37;;;;;;;8.07;4.67;;;;;;;;;;5058436;28;20102;-70
2022/01/23 05:47:06;;;;;;;8.87;5.10;;;;;;;;;;5048211;28;20641;-65
2022/01/23 05:49:35;;;;;;;10.17;4.17;;;;;;;;;;5062778;28;20217;-65
2022/01/23 05:52:02;;;;;;;12.73;3.93;;;;;;;;;;5065855;28;20517;-65
2022/01/23 05:54:29;;;;;;;12.10;4.83;;;;;;;;;;5058401;28;20099;-65
2022/01/23 05:56:56;;;;;;;9.13;4.47;;;;;;;;;;5072694;28;20055;-65
2022/01/23 05:59:23;;;;;;;7.93;3.60;;;;;;;;;;5058577;28;20048;-64
2022/01/23 06:01:55;;;;;;;8.70;3.30;;;;;;;;;;5052439;28;20108;-65
2022/01/23 06:04:22;;;;;;;7.13;3.93;;;;;;;;;;5052686;28;20124;-64
2022/01/23 06:06:50;;;;;;;6.70;3.47;;;;;;;;;;5067631;28;20025;-65
2022/01/23 06:09:19;;;;;;;6.73;2.90;;;;;;;;;;5053507;28;20029;-64
2022/01/23 06:11:45;;;;;;;6.87;3.43;;;;;;;;;;5047348;28;20094;-64
2022/01/23 06:14:13;;;;;;;7.57;4.10;;;;;;;;;;5047671;28;20300;-66
2022/01/23 06:16:41;;;;;;;9.20;4.77;;;;;;;;;;5052494;28;20052;-64
2022/01/23 06:19:08;;;;;;;7.97;3.63;;;;;;;;;;5060606;28;20058;-64
2022/01/23 06:21:35;;;;;;;7.23;3.80;;;;;;;;;;5055740;28;20734;-65
2022/01/23 06:26:49;;;;;;;7.33;3.30;;;;;;;;;;5071460;28;20344;-65
2022/01/23 06:29:17;;;;;;;9.80;3.23;;;;;;;;;;5066933;28;20280;-65
2022/01/23 06:31:47;;;;;;;5.80;3.20;;;;;;;;;;5067219;28;20300;-64
2022/01/23 06:34:15;;;;;;;11.83;4.13;;;;;;;;;;5065632;28;20269;-65
2022/01/23 06:36:43;;;;;;;7.30;3.47;;;;;;;;;;5068141;28;20340;-64
2022/01/23 06:39:11;;;;;;;4.43;2.90;;;;;;;;;;5071721;28;20308;-65
2022/01/23 06:41:39;;;;;;;5.70;2.30;;;;;;;;;;5071650;28;20282;-65
2022/01/23 06:44:06;;;;;;;10.13;3.60;;;;;;;;;;5071609;28;20093;-64
2022/01/23 06:46:33;;;;;;;6.27;2.83;;;;;;;;;;5051716;28;20347;-65
2022/01/23 06:49:01;;;;;;;5.70;2.60;;;;;;;;;;5050643;28;20337;-64
2022/01/23 06:51:28;;;;;;;5.13;2.27;;;;;;;;;;5047005;28;20286;-64
2022/01/23 06:53:55;;;;;;;6.93;2.87;;;;;;;;;;5057828;28;20269;-64
2022/01/23 06:56:23;;;;;;;4.07;2.40;;;;;;;;;;5049721;28;20360;-65
2022/01/23 06:58:57;;;;;;;5.60;2.43;;;;;;;;;;5067415;28;20273;-64
2022/01/23 07:01:25;;;;;;;5.77;2.90;;;;;;;;;;5053006;28;20275;-64
2022/01/23 07:03:52;;;;;;;5.17;2.30;;;;;;;;;;5063596;28;20266;-64
2022/01/23 07:06:19;;;;;;;3.63;1.90;;;;;;;;;;5051776;28;20301;-64
2022/01/23 07:08:46;;;;;;;2.30;1.63;;;;;;;;;;5052785;28;20282;-64
2022/01/23 07:11:14;;;;;;;5.87;2.20;;;;;;;;;;5061095;28;20384;-64
2022/01/23 07:13:42;;;;;;;7.97;2.70;;;;;;;;;;5046677;28;20741;-65
2022/01/23 07:16:09;;;;;;;6.67;2.03;;;;;;;;;;5060533;28;20715;-64
2022/01/23 07:18:36;;;;;;;4.00;2.20;;;;;;;;;;5066838;28;20348;-63
2022/01/23 07:21:05;;;;;;;4.70;2.20;;;;;;;;;;5067598;28;20333;-64
2022/01/23 07:23:36;;;;;;;4.70;2.13;;;;;;;;;;5071775;28;20258;-64
2022/01/23 07:26:04;;;;;;;3.30;1.70;;;;;;;;;;5071620;28;20659;-64
2022/01/23 07:28:39;;;;;;;4.47;1.80;;;;;;;;;;5056202;28;20278;-64
2022/01/23 07:31:10;;;;;;;3.43;2.20;;;;;;;;;;5051711;28;20282;-64
2022/01/23 07:33:39;;;;;;;5.47;2.33;;;;;;;;;;5050023;28;20269;-64
2022/01/23 07:36:08;;;;;;;4.93;2.13;;;;;;;;;;5049464;28;20317;-64
2022/01/23 07:38:39;;;;;;;4.23;1.63;;;;;;;;;;5050406;28;20289;-64
2022/01/23 07:41:06;;;;;;;6.53;2.00;;;;;;;;;;5050505;28;20312;-64
2022/01/23 07:43:34;;;;;;;5.03;2.10;;;;;;;;;;5051753;28;20254;-64
2022/01/23 07:46:01;;;;;;;2.57;1.60;;;;;;;;;;5055201;28;20677;-63
2022/01/23 07:48:28;;;;;;;7.57;2.47;;;;;;;;;;5055395;28;20266;-63
2022/01/23 07:50:56;;;;;;;4.63;2.30;;;;;;;;;;5054791;28;20259;-65
2022/01/23 07:53:24;;;;;;;5.33;2.30;;;;;;;;;;5055204;28;20250;-63
2022/01/23 07:55:51;;;;;;;4.27;2.40;;;;;;;;;;5053308;28;20269;-64
2022/01/23 07:58:18;;;;;;;5.47;2.57;;;;;;;;;;5050180;28;20258;-64
2022/01/23 08:00:47;;;;;;;6.03;2.53;;;;;;;;;;5050029;28;20261;-64
2022/01/23 08:03:14;;;;;;;4.97;2.37;;;;;;;;;;5050348;28;20266;-64
2022/01/23 08:05:43;;;;;;;4.53;2.60;;;;;;;;;;5071081;28;20755;-63
2022/01/23 08:08:10;;;;;;;6.90;2.20;;;;;;;;;;5074894;28;20254;-64
2022/01/23 08:10:38;;;;;;;5.80;2.00;;;;;;;;;;5074510;28;20345;-64
2022/01/23 08:13:05;;;;;;;4.33;2.00;;;;;;;;;;5070907;28;20392;-64
2022/01/23 08:15:35;;;;;;;4.47;2.20;;;;;;;;;;5054753;28;20269;-64
2022/01/23 08:18:03;;;;;;;3.60;1.93;;;;;;;;;;5055829;28;20344;-64
2022/01/23 08:20:33;;;;;;;7.40;2.00;;;;;;;;;;5069373;28;20640;-64
2022/01/23 08:23:01;;;;;;;3.53;1.90;;;;;;;;;;5066356;28;20336;-64
2022/01/23 08:25:30;;;;;;;3.87;2.30;;;;;;;;;;5067628;28;20269;-64
2022/01/23 08:27:57;;;;;;;4.27;1.77;;;;;;;;;;5068929;28;20269;-64
2022/01/23 08:30:25;;;;;;;4.73;2.67;;;;;;;;;;5064451;28;20652;-64
2022/01/23 08:32:53;;;;;;;6.17;1.97;;;;;;;;;;5054339;28;20290;-64
2022/01/23 08:35:21;;;;;;;3.80;2.30;;;;;;;;;;5070384;28;20273;-64
2022/01/23 08:37:49;;;;;;;4.87;1.77;;;;;;;;;;5056073;28;20270;-64
2022/01/23 08:40:23;;;;;;;5.43;2.50;;;;;;;;;;5052499;28;20265;-64
2022/01/23 08:42:54;;;;;;;7.07;1.83;;;;;;;;;;5050450;28;20262;-64
2022/01/23 08:45:21;;;;;;;5.33;1.80;;;;;;;;;;5063683;28;20755;-63
2022/01/23 08:47:49;;;;;;;4.20;1.87;;;;;;;;;;5062125;28;20288;-64
2022/01/23 08:50:16;;;;;;;4.40;2.10;;;;;;;;;;5069858;28;20276;-64
2022/01/23 08:52:43;;;;;;;4.07;2.17;;;;;;;;;;5073611;28;20293;-64
2022/01/23 08:55:10;;;;;;;4.10;2.13;;;;;;;;;;5073914;28;20273;-64
2022/01/23 08:57:37;;;;;;;3.13;1.73;;;;;;;;;;5073946;28;20253;-66
2022/01/23 09:00:05;;;;;;;3.47;1.83;;;;;;;;;;5053632;28;20660;-64
2022/01/23 09:02:34;;;;;;;3.33;1.90;;;;;;;;;;5051650;28;20262;-63
2022/01/23 09:05:01;;;;;;;3.53;1.83;;;;;;;;;;5048394;28;20289;-64
2022/01/23 09:07:28;;;;;;;2.60;1.77;;;;;;;;;;5048865;28;20309;-64
2022/01/23 09:10:01;;;;;;;4.03;2.43;;;;;;;;;;5063348;28;20692;-63
2022/01/23 09:15:06;;;;;;;3.63;1.40;;;;;;;;;;5053670;28;20262;-65
2022/01/23 09:17:33;;;;;;;4.23;2.03;;;;;;;;;;5055850;28;20260;-64
2022/01/23 09:20:00;;;;;;;3.93;2.00;;;;;;;;;;5058927;28;20668;-63
2022/01/23 09:22:30;;;;;;;3.50;2.00;;;;;;;;;;5054407;28;20262;-63
2022/01/23 09:24:58;;;;;;;3.67;1.50;;;;;;;;;;5050988;28;20281;-64
2022/01/23 09:27:25;;;;;;;3.47;1.50;;;;;;;;;;5048490;28;20318;-64
2022/01/23 09:29:54;;;;;;;3.33;1.80;;;;;;;;;;5047778;28;20269;-65
2022/01/23 09:32:24;;;;;;;3.73;1.80;;;;;;;;;;5048262;28;20333;-63
2022/01/23 09:34:52;;;;;;;4.47;1.37;;;;;;;;;;5050187;28;20309;-64
2022/01/23 09:37:25;;;;;;;2.97;1.50;;;;;;;;;;5053034;28;20285;-63
2022/01/23 09:39:53;;;;;;;2.47;1.33;;;;;;;;;;5054387;28;20305;-63
2022/01/23 09:42:29;;;;;;;3.80;1.80;;;;;;;;;;5071060;28;20807;-64
2022/01/23 09:47:45;;;;;;;5.10;1.70;;;;;;;;;;5050177;28;20812;-64
2022/01/23 09:50:14;;;;;;;6.03;1.60;;;;;;;;;;5055671;28;20284;-64
2022/01/23 09:52:42;;;;;;;2.83;1.60;;;;;;;;;;5049361;28;20312;-64
2022/01/23 09:55:11;;;;;;;5.17;1.77;;;;;;;;;;5048157;28;20304;-63
2022/01/23 09:57:43;;;;;;;2.10;1.20;;;;;;;;;;5050859;28;20254;-64
2022/01/23 10:00:12;;;;;;;3.07;1.50;;;;;;;;;;5052680;28;20270;-64
2022/01/23 10:02:39;;;;;;;4.13;1.47;;;;;;;;;;5052726;28;20743;-64
2022/01/23 10:05:07;;;;;;;4.03;1.60;;;;;;;;;;5052482;28;20261;-63
2022/01/23 10:07:38;;;;;;;3.40;1.33;;;;;;;;;;5071058;28;20740;-64
2022/01/23 10:10:12;;;;;;;2.17;1.30;;;;;;;;;;5052021;28;20365;-64
2022/01/23 10:12:40;;;;;;;2.60;1.30;;;;;;;;;;5047523;28;20282;-64
2022/01/23 10:15:08;;;;;;;2.03;1.20;;;;;;;;;;5056514;28;20280;-64
2022/01/23 10:17:35;;;;;;;2.67;1.50;;;;;;;;;;5066799;28;20257;-64
2022/01/23 10:20:06;;;;;;;3.23;1.73;;;;;;;;;;5067564;28;20270;-63
2022/01/23 10:22:34;;;;;;;3.53;1.80;;;;;;;;;;5052256;28;20780;-64
2022/01/23 10:25:06;;;;;;;3.10;1.90;;;;;;;;;;5052475;28;20628;-64
2022/01/23 10:27:50;;;;;;;2.63;1.60;;;;;;;;;;5052389;28;20282;-64
2022/01/23 10:30:18;;;;;;;3.33;1.80;;;;;;;;;;5052547;28;20270;-63
2022/01/23 10:32:56;;;;;;;3.67;1.70;;;;;;;;;;5047029;28;20282;-64
2022/01/23 10:35:24;;;;;;;3.00;1.70;;;;;;;;;;5047246;28;20266;-64
2022/01/23 10:37:52;;;;;;;2.47;1.30;;;;;;;;;;5047120;28;20400;-64
2022/01/23 10:40:23;;;;;;;2.77;1.70;;;;;;;;;;5047231;28;20285;-64
2022/01/23 10:48:26;;;;;;;3.10;1.40;;;;;;;;;;5053090;28;20617;-64
2022/01/23 10:51:12;;;;;;;3.93;1.30;;;;;;;;;;5055831;28;20025;-63
2022/01/23 10:53:57;;;;;;;3.20;1.80;;;;;;;;;;5069158;28;20990;-63
2022/01/23 10:56:25;;;;;;;2.70;1.50;;;;;;;;;;5067340;28;20258;-63
2022/01/23 10:59:03;;;;;;;3.00;1.47;;;;;;;;;;5047187;28;20116;-64
2022/01/23 11:01:30;;;;;;;2.73;1.40;;;;;;;;;;5047435;28;20268;-64
2022/01/23 11:04:07;;;;;;;3.23;1.70;;;;;;;;;;5069535;28;20300;-64
2022/01/23 11:06:51;;;;;;;4.80;1.63;;;;;;;;;;5072106;28;20264;-64
2022/01/23 11:09:18;;;;;;;3.33;2.03;;;;;;;;;;5058210;28;20274;-63
2022/01/23 11:11:49;;;;;;;2.40;1.23;;;;;;;;;;5055906;28;20282;-63
2022/01/23 11:19:47;;;;;;;;;;;;;;;;;;5051438;28;20396;-64
2022/01/23 11:22:18;;;;;;;2.53;1.47;;;;;;;;;;5062664;28;19912;-63
2022/01/23 11:24:47;;;;;;;4.30;1.37;;;;;;;;;;5070722;28;20276;-64
2022/01/23 11:27:15;;;;;;;4.80;1.97;;;;;;;;;;5075520;28;20344;-63
2022/01/23 11:29:57;;;;;;;2.83;1.50;;;;;;;;;;5075665;28;20262;-63
2022/01/23 11:32:26;;;;;;;2.70;1.60;;;;;;;;;;5075396;28;20383;-64
2022/01/23 11:35:00;;;;;;;4.63;1.40;;;;;;;;;;5058880;28;20269;-63
2022/01/23 11:37:28;;;;;;;2.80;1.50;;;;;;;;;;5054267;28;20258;-63
2022/01/23 11:40:00;;;;;;;2.60;1.43;;;;;;;;;;5050684;28;20264;-64
2022/01/23 11:50:49;;;;;;;5.68;1.42;;;;;;;;;;5055384;28;20036;-63
2022/01/23 11:56:26;;;;;;;2.07;1.13;;;;;;;;;;5055221;28;20292;-63
2022/01/23 11:59:12;;;;;;;4.53;1.47;;;;;;;;;;5055276;28;20280;-63
2022/01/23 12:01:40;;;;;;;2.87;1.70;;;;;;;;;;5050060;28;20258;-63
2022/01/23 12:04:17;;;;;;;2.43;1.40;;;;;;;;;;5049877;28;20281;-64
2022/01/23 12:06:47;;;;;;;2.63;1.60;;;;;;;;;;5049843;28;20258;-63
2022/01/23 12:09:18;;;;;;;2.27;1.33;;;;;;;;;;5050370;28;20268;-63
2022/01/23 12:18:19;;;;;;;3.00;1.47;;;;;;;;;;5074282;28;20326;-63
2022/01/23 12:20:48;;;;;;;2.43;1.20;;;;;;;;;;5074675;28;20265;-63
2022/01/23 12:23:15;;;;;;;3.57;1.57;;;;;;;;;;5060438;28;20419;-63
2022/01/23 12:25:44;;;;;;;3.40;1.80;;;;;;;;;;5055914;28;20261;-63
2022/01/23 12:28:12;;;;;;;2.53;1.47;;;;;;;;;;5061309;28;20266;-63
2022/01/23 12:30:43;;;;;;;3.53;1.63;;;;;;;;;;5050423;28;20274;-64
2022/01/23 12:33:16;;;;;;;2.97;1.70;;;;;;;;;;5066496;28;20649;-63
2022/01/23 12:35:50;;;;;;;3.07;1.80;;;;;;;;;;5054459;28;20329;-63
2022/01/23 12:38:19;;;;;;;3.80;1.80;;;;;;;;;;5067056;28;20268;-63
2022/01/23 12:40:50;;;;;;;2.97;1.50;;;;;;;;;;5073917;28;20269;-63
2022/01/23 12:43:21;;;;;;;3.80;2.17;;;;;;;;;;5073780;28;20581;-63
2022/01/23 12:45:56;;;;;;;7.83;2.43;;;;;;;;;;5059622;28;20928;-63
2022/01/23 12:48:29;;;;;;;3.80;1.55;;;;;;;;;;5049097;28;20266;-63
2022/01/23 12:50:58;;;;;;;5.30;2.10;;;;;;;;;;5067419;28;20126;-63
2022/01/23 12:53:37;;;;;;;6.13;2.20;;;;;;;;;;5068999;28;20276;-63
2022/01/23 12:56:09;;;;;;;8.57;2.90;;;;;;;;;;5054216;28;20298;-63
2022/01/23 12:58:36;;;;;;;4.93;2.33;;;;;;;;;;5053693;28;20289;-63
2022/01/23 13:01:08;;;;;;;3.47;2.20;;;;;;;;;;5058429;28;20293;-63
2022/01/23 13:03:37;;;;;;;4.83;2.60;;;;;;;;;;5068060;28;20341;-63
2022/01/23 13:06:07;;;;;;;3.30;1.97;;;;;;;;;;5065283;28;20826;-64
2022/01/23 13:08:45;;;;;;;3.73;2.07;;;;;;;;;;5068315;28;20330;-63
2022/01/23 13:11:51;;;;;;;3.70;1.97;;;;;;;;;;5048786;28;20266;-63
2022/01/23 13:14:00;;;;;;;5.43;2.53;;;;;;;;;;5048022;28;20297;-64
2022/01/23 13:16:36;;;;;;;3.03;2.03;;;;;;;;;;5051148;28;20660;-63
2022/01/23 13:19:45;;;;;;;3.33;2.23;;;;;;;;;;5053740;28;20319;-64
2022/01/23 13:30:16;;;;;;;6.40;1.83;;;;;;;;;;5068232;28;20047;-63
2022/01/23 13:32:50;;;;;;;4.80;1.80;;;;;;;;;;5067598;28;20325;-63
2022/01/23 13:35:26;;;;;;;8.13;2.80;;;;;;;;;;5067858;28;20291;-63
2022/01/23 13:37:58;;;;;;;8.07;2.90;;;;;;;;;;5069172;28;20272;-63
2022/01/23 13:40:37;;;;;;;8.23;3.23;;;;;;;;;;5072910;28;20349;-62
2022/01/23 13:57:30;;;;;;;6.87;3.13;;;;;;;;;;5047774;28;20311;-64
2022/01/23 13:59:59;;;;;;;9.90;2.70;;;;;;;;;;5047698;28;21617;-63
2022/01/23 14:02:28;;;;;;;6.88;2.80;;;;;;;;;;5052879;28;20286;-63
2022/01/23 14:05:04;;;;;;;5.07;2.50;;;;;;;;;;5053143;28;20031;-63
2022/01/23 14:07:32;;;;;;;4.90;2.33;;;;;;;;;;5052250;28;20315;-63
2022/01/23 14:10:00;;;;;;;4.10;2.57;;;;;;;;;;5058575;28;20302;-63
2022/01/23 14:12:32;;;;;;;3.47;2.00;;;;;;;;;;5050762;28;20292;-64
2022/01/23 14:15:05;;;;;;;4.90;2.20;;;;;;;;;;5047559;28;20284;-64
2022/01/23 14:17:36;;;;;;;5.97;2.77;;;;;;;;;;5047367;28;20261;-63
2022/01/23 14:20:06;;;;;;;5.57;1.90;;;;;;;;;;5047761;28;20304;-63
2022/01/23 14:22:35;;;;;;;3.67;1.60;;;;;;;;;;5049437;28;20273;-63
2022/01/23 14:25:11;;;;;;;2.97;1.73;;;;;;;;;;5052015;28;20265;-64
2022/01/23 14:27:38;;;;;;;3.47;1.87;;;;;;;;;;5070127;28;20620;-63
2022/01/23 14:30:07;;;;;;;4.63;2.50;;;;;;;;;;5071576;28;20398;-65
2022/01/23 14:33:06;;;;;;;4.03;2.27;;;;;;;;;;5072258;28;20439;-64
2022/01/23 14:35:29;;;;;;;12.13;2.77;;;;;;;;;;5048359;28;20159;-64
2022/01/23 14:38:17;;;;;;;4.63;3.03;;;;;;;;;;5047472;28;20431;-64
2022/01/23 14:40:55;;;;;;;5.40;2.90;;;;;;;;;;5061781;28;20082;-64
2022/01/23 14:43:22;;;;;;;5.70;3.00;;;;;;;;;;5066827;28;20270;-65
2022/01/23 14:45:50;;;;;;;6.37;2.53;;;;;;;;;;5055001;28;20025;-64
2022/01/23 14:48:18;;;;;;;5.37;3.13;;;;;;;;;;5056728;28;20348;-64
2022/01/23 14:50:51;;;;;;;6.53;2.83;;;;;;;;;;5072180;28;20024;-64
2022/01/23 14:53:19;;;;;;;6.77;2.83;;;;;;;;;;5069440;28;20119;-64
2022/01/23 14:55:52;;;;;;;5.47;2.60;;;;;;;;;;5070074;28;20028;-64
2022/01/23 14:58:21;;;;;;;6.30;2.80;;;;;;;;;;5047040;28;20087;-65
2022/01/23 15:00:49;;;;;;;5.17;2.80;;;;;;;;;;5059358;28;20051;-65
2022/01/23 15:03:16;;;;;;;4.73;2.30;;;;;;;;;;5066749;28;20778;-65
2022/01/23 15:05:43;;;;;;;4.07;2.03;;;;;;;;;;5066815;28;20111;-65
2022/01/23 15:08:13;;;;;;;3.40;1.73;;;;;;;;;;5067124;28;20064;-64
2022/01/23 15:10:41;;;;;;;2.97;1.70;;;;;;;;;;5051925;28;20460;-65
2022/01/23 15:13:09;;;;;;;4.53;1.40;;;;;;;;;;5051713;28;20076;-66
2022/01/23 15:15:36;;;;;;;3.40;1.30;;;;;;;;;;5060905;28;20063;-65
2022/01/23 15:18:06;;;;;;;1.40;1.00;;;;;;;;;;5054461;28;20025;-65
2022/01/23 15:20:35;;;;;;;2.53;1.30;;;;;;;;;;5051225;28;20029;-65
2022/01/23 15:23:06;;;;;;;2.77;1.40;;;;;;;;;;5067082;28;20720;-65
2022/01/23 15:25:33;;;;;;;2.10;1.27;;;;;;;;;;5066791;28;20024;-65
2022/01/23 15:28:00;;;;;;;2.60;0.93;;;;;;;;;;5066531;28;20032;-65
2022/01/23 15:30:28;;;;;;;3.33;1.37;;;;;;;;;;5071854;28;20106;-65
2022/01/23 15:32:56;;;;;;;4.30;1.30;;;;;;;;;;5065456;28;20033;-65
2022/01/23 15:35:24;;;;;;;1.87;1.10;;;;;;;;;;5051709;28;20037;-65
2022/01/23 15:37:51;;;;;;;1.73;1.00;;;;;;;;;;5051763;28;20059;-65
2022/01/23 15:40:20;;;;;;;2.93;1.30;;;;;;;;;;5051310;28;20947;-66
2022/01/23 15:42:49;;;;;;;1.90;1.10;;;;;;;;;;5046474;28;20110;-66
2022/01/23 15:45:17;;;;;;;4.47;1.30;;;;;;;;;;5046522;28;20025;-65
2022/01/23 15:47:44;;;;;;;1.80;0.90;;;;;;;;;;5046653;28;20115;-66
2022/01/23 15:50:13;;;;;;;3.00;1.00;;;;;;;;;;5046514;28;20032;-65
2022/01/23 15:52:41;;;;;;;1.27;0.90;;;;;;;;;;5051415;28;20025;-65
2022/01/23 15:55:10;;;;;;;2.13;1.20;;;;;;;;;;5051036;28;20060;-67
2022/01/23 15:57:38;;;;;;;3.43;1.10;;;;;;;;;;5054756;28;20021;-66
2022/01/23 16:00:07;;;;;;;2.00;0.90;;;;;;;;;;5055152;28;20056;-66
2022/01/23 16:02:34;;;;;;;3.07;1.07;;;;;;;;;;5054304;28;20032;-66
2022/01/23 16:05:01;;;;;;;1.60;0.90;;;;;;;;;;5050243;28;20108;-66
2022/01/23 16:07:28;;;;;;;1.43;0.90;;;;;;;;;;5049945;28;20419;-66
2022/01/23 16:09:56;;;;;;;1.43;0.87;;;;;;;;;;5065489;28;20383;-66
2022/01/23 16:12:23;;;;;;;1.43;0.83;;;;;;;;;;5069590;28;20479;-67
2022/01/23 16:14:50;;;;;;;3.07;0.97;;;;;;;;;;5074391;28;20024;-66
2022/01/23 16:17:18;;;;;;;2.00;1.00;;;;;;;;;;5074839;28;20078;-66
2022/01/23 16:19:45;;;;;;;3.80;1.90;;;;;;;;;;5056498;28;20064;-66
2022/01/23 16:22:14;;;;;;;2.23;1.10;;;;;;;;;;5058655;28;20020;-67
2022/01/23 16:24:41;;;;;;;3.03;1.30;;;;;;;;;;5073212;28;20013;-67
2022/01/23 16:27:10;;;;;;;1.80;1.10;;;;;;;;;;5069363;28;20040;-66
2022/01/23 16:29:38;;;;;;;2.90;1.27;;;;;;;;;;5057841;28;20064;-66
2022/01/23 16:32:07;;;;;;;3.70;1.50;;;;;;;;;;5049568;28;20033;-66
2022/01/23 16:34:36;;;;;;;6.73;1.70;;;;;;;;;;5049723;28;20820;-67
2022/01/23 16:37:05;;;;;;;3.10;1.43;;;;;;;;;;5067889;28;20028;-67
2022/01/23 16:39:32;;;;;;;2.83;1.50;;;;;;;;;;5074038;28;20031;-66
2022/01/23 16:42:00;;;;;;;1.90;1.47;;;;;;;;;;5073875;28;20024;-67
2022/01/23 16:44:28;;;;;;;3.00;1.57;;;;;;;;;;5073551;28;20620;-67
2022/01/23 16:46:57;;;;;;;3.50;1.53;;;;;;;;;;5054889;28;20028;-67
2022/01/23 16:49:26;;;;;;;6.33;1.70;;;;;;;;;;5054635;28;20360;-67
2022/01/23 16:51:53;;;;;;;2.87;1.53;;;;;;;;;;5068738;28;20032;-67
2022/01/23 16:54:21;;;;;;;3.20;1.63;;;;;;;;;;5068719;28;20032;-67
2022/01/23 16:56:48;;;;;;;3.13;1.63;;;;;;;;;;5069309;28;20386;-67
2022/01/23 16:59:15;;;;;;;3.43;1.60;;;;;;;;;;5073702;28;20123;-67
2022/01/23 17:01:46;;;;;;;3.60;1.57;;;;;;;;;;5055822;28;20021;-67
2022/01/23 17:04:15;;;;;;;3.20;1.47;;;;;;;;;;5053539;28;20052;-67
2022/01/23 17:06:43;;;;;;;1.83;1.20;;;;;;;;;;5065282;28;20493;-67
2022/01/23 17:09:11;;;;;;;3.27;1.70;;;;;;;;;;5061752;28;20025;-67
2022/01/23 17:11:39;;;;;;;3.17;1.73;;;;;;;;;;5048839;28;20103;-63
2022/01/23 17:14:06;;;;;;;2.63;1.37;;;;;;;;;;5061403;28;20226;-63
2022/01/23 17:16:33;;;;;;;2.33;1.43;;;;;;;;;;5056969;28;20021;-63
2022/01/23 17:19:01;;;;;;;6.70;1.50;;;;;;;;;;5048624;28;20028;-66
2022/01/23 17:21:28;;;;;;;8.37;1.87;;;;;;;;;;5053541;28;20025;-64
2022/01/23 17:23:56;;;;;;;10.80;2.97;;;;;;;;;;5053485;28;20021;-65
2022/01/23 17:26:26;;;;;;;4.17;1.20;;;;;;;;;;5054641;28;20024;-68
2022/01/23 17:28:53;;;;;;;3.43;1.10;;;;;;;;;;5054300;28;20123;-66
2022/01/23 17:31:20;;;;;;;1.47;0.83;;;;;;;;;;5067249;28;20025;-66
2022/01/23 17:33:47;;;;;;;4.77;0.93;;;;;;;;;;5047851;28;20025;-66
2022/01/23 17:36:14;;;;;;;2.10;1.10;;;;;;;;;;5048481;28;20029;-67
2022/01/23 17:38:41;;;;;;;2.60;1.43;;;;;;;;;;5063986;28;20028;-67
2022/01/23 17:41:16;;;;;;;11.23;2.87;;;;;;;;;;5068338;28;20028;-66
2022/01/23 17:43:42;;;;;;;;;;;;;;;;;;5064825;28;20020;-67
2022/01/23 17:46:16;;;;;;;1.20;0.77;;;;;;;;;;5064870;28;19908;-67
2022/01/23 17:51:30;;;;;;;1.33;0.93;;;;;;;;;;5052866;28;20272;-66
2022/01/23 17:54:02;;;;;;;1.40;0.80;;;;;;;;;;5060934;28;20025;-66
2022/01/23 17:56:29;;;;;;;3.40;1.30;;;;;;;;;;5067768;28;20459;-67
2022/01/23 17:58:57;;;;;;;2.53;0.70;;;;;;;;;;5067551;28;21153;-67
2022/01/23 18:01:25;;;;;;;4.53;1.30;;;;;;;;;;5053962;28;20090;-67
2022/01/23 18:03:55;;;;;;;2.83;1.40;;;;;;;;;;5050060;28;20480;-67
2022/01/23 18:06:23;;;;;;;3.27;1.00;;;;;;;;;;5059108;28;20029;-67
2022/01/23 18:08:52;;;;;;;3.43;1.10;;;;;;;;;;5057741;28;20036;-66
2022/01/23 18:11:19;;;;;;;2.23;1.20;;;;;;;;;;5052842;28;20021;-67
2022/01/23 18:13:58;;;;;;;2.57;1.03;;;;;;;;;;5052648;28;20037;-66
2022/01/23 18:16:31;;;;;;;1.80;1.20;;;;;;;;;;5055086;28;20024;-67
2022/01/23 18:19:00;;;;;;;4.27;0.93;;;;;;;;;;5066977;28;20023;-67